createdAt,value
2019-04-07T00:01:26.439Z,29.17
2019-04-07T00:03:56.613Z,23.13
2019-04-07T00:06:26.961Z,25.20
2019-04-07T00:08:55.709Z,21.43
2019-04-07T00:11:24.466Z,25.33
2019-04-07T00:13:55.272Z,24.33
2019-04-07T00:16:24.214Z,24.83
2019-04-07T00:18:53.474Z,24.17
2019-04-07T00:21:22.318Z,21.33
2019-04-07T00:23:51.581Z,24.50
2019-04-07T00:26:20.372Z,23.80
2019-04-07T00:28:49.059Z,26.73
2019-04-07T00:31:19.365Z,24.07
2019-04-07T00:33:48.590Z,23.90
2019-04-07T00:36:17.792Z,24.30
2019-04-07T00:38:47.065Z,24.73
2019-04-07T00:41:15.821Z,32.77
2019-04-07T00:43:44.584Z,29.00
2019-04-07T00:46:13.668Z,26.93
2019-04-07T00:48:44.265Z,28.77
2019-04-07T00:51:13.197Z,25.47
2019-04-07T00:53:41.925Z,27.63
2019-04-07T00:56:16.603Z,27.90
2019-04-07T00:58:45.672Z,29.40
2019-04-07T01:01:18.112Z,25.83
2019-04-07T01:03:46.803Z,26.53
2019-04-07T01:06:21.889Z,28.00
2019-04-07T01:08:52.451Z,27.50
2019-04-07T01:11:23.122Z,27.60
2019-04-07T01:13:51.940Z,29.33
2019-04-07T01:16:20.789Z,28.00
2019-04-07T01:18:50.219Z,28.87
2019-04-07T01:21:21.773Z,26.30
2019-04-07T01:23:50.439Z,31.77
2019-04-07T01:26:19.074Z,27.13
2019-04-07T01:28:48.217Z,26.80
2019-04-07T01:31:17.632Z,26.17
2019-04-07T01:33:46.859Z,29.30
2019-04-07T01:36:16.083Z,30.80
2019-04-07T01:38:45.427Z,26.80
2019-04-07T01:41:19.513Z,27.60
2019-04-07T01:44:00.136Z,32.77
2019-04-07T01:46:30.673Z,31.23
2019-04-07T01:49:10.962Z,27.60
2019-04-07T01:51:44.582Z,29.87
2019-04-07T01:54:17.983Z,30.00
2019-04-07T01:56:58.039Z,30.00
2019-04-07T01:59:37.875Z,29.33
2019-04-07T02:02:14.745Z,27.70
2019-04-07T02:05:03.429Z,26.63
2019-04-07T02:07:40.095Z,25.97
2019-04-07T02:10:13.788Z,25.70
2019-04-07T02:12:50.683Z,27.47
2019-04-07T02:15:40.743Z,29.07
2019-04-07T02:18:13.533Z,27.30
2019-04-07T02:21:04.351Z,28.63
2019-04-07T02:23:51.384Z,27.20
2019-04-07T02:29:09.220Z,28.80
2019-04-07T02:31:40.126Z,33.70
2019-04-07T02:34:13.677Z,27.00
2019-04-07T02:36:49.990Z,32.60
2019-04-07T02:39:36.828Z,28.70
2019-04-07T02:42:07.447Z,30.50
2019-04-07T02:44:40.964Z,27.90
2019-04-07T02:47:11.493Z,27.53
2019-04-07T02:49:48.608Z,30.07
2019-04-07T02:52:35.725Z,25.47
2019-04-07T02:55:13.073Z,34.73
2019-04-07T02:57:47.579Z,30.57
2019-04-07T03:00:24.645Z,28.37
2019-04-07T03:03:04.788Z,27.90
2019-04-07T03:05:38.425Z,27.23
2019-04-07T03:08:21.342Z,31.00
2019-04-07T03:10:55.371Z,27.27
2019-04-07T03:13:26.219Z,28.00
2019-04-07T03:16:02.110Z,27.27
2019-04-07T03:18:48.871Z,28.57
2019-04-07T03:21:19.630Z,27.80
2019-04-07T03:23:51.198Z,27.10
2019-04-07T03:26:40.712Z,30.23
2019-04-07T03:29:14.102Z,29.50
2019-04-07T03:31:54.299Z,33.83
2019-04-07T03:34:30.628Z,30.23
2019-04-07T03:37:18.302Z,28.13
2019-04-07T03:39:49.188Z,28.87
2019-04-07T03:42:37.017Z,25.77
2019-04-07T03:48:08.564Z,30.17
2019-04-07T03:50:41.737Z,34.87
2019-04-07T03:53:15.889Z,31.37
2019-04-07T03:55:51.657Z,31.63
2019-04-07T03:58:38.454Z,29.53
2019-04-07T04:01:25.941Z,27.53
2019-04-07T04:04:15.608Z,32.47
2019-04-07T04:07:17.708Z,30.30
2019-04-07T04:09:42.833Z,27.83
2019-04-07T04:12:30.097Z,30.40
2019-04-07T04:15:01.683Z,30.70
2019-04-07T04:17:30.726Z,33.33
2019-04-07T04:20:04.176Z,34.90
2019-04-07T04:22:33.002Z,31.33
2019-04-07T04:25:02.808Z,32.90
2019-04-07T04:27:31.606Z,35.43
2019-04-07T04:30:00.933Z,27.83
2019-04-07T04:32:30.794Z,30.23
2019-04-07T04:35:00.971Z,26.20
2019-04-07T04:37:40.323Z,32.40
2019-04-07T04:40:00.371Z,34.03
2019-04-07T04:42:29.085Z,31.50
2019-04-07T04:44:58.870Z,28.97
2019-04-07T04:47:27.791Z,33.10
2019-04-07T04:49:56.428Z,33.23
2019-04-07T04:52:26.412Z,32.93
2019-04-07T04:54:56.892Z,28.97
2019-04-07T04:57:25.817Z,29.77
2019-04-07T04:59:54.469Z,29.87
2019-04-07T05:02:23.555Z,36.40
2019-04-07T05:04:52.781Z,27.93
2019-04-07T05:07:22.832Z,30.10
2019-04-07T05:09:55.099Z,29.60
2019-04-07T05:12:23.158Z,31.23
2019-04-07T05:14:51.902Z,28.53
2019-04-07T05:17:24.270Z,34.03
2019-04-07T05:19:53.403Z,33.27
2019-04-07T05:22:22.550Z,30.07
2019-04-07T05:24:52.092Z,30.57
2019-04-07T05:27:20.740Z,30.60
2019-04-07T05:29:52.180Z,28.93
2019-04-07T05:32:21.221Z,37.00
2019-04-07T05:34:50.462Z,31.73
2019-04-07T05:37:19.255Z,33.43
2019-04-07T05:39:48.393Z,26.20
2019-04-07T05:42:17.512Z,29.37
2019-04-07T05:44:46.631Z,32.73
2019-04-07T05:47:15.538Z,28.37
2019-04-07T05:49:44.590Z,26.77
2019-04-07T05:52:13.961Z,29.63
2019-04-07T05:54:42.900Z,31.33
2019-04-07T05:57:11.880Z,25.67
2019-04-07T05:59:42.256Z,22.27
2019-04-07T06:02:11.110Z,25.87
2019-04-07T06:04:40.382Z,25.07
2019-04-07T06:07:09.195Z,24.20
2019-04-07T06:09:37.755Z,27.03
2019-04-07T06:12:09.822Z,23.90
2019-04-07T06:14:38.936Z,30.87
2019-04-07T06:17:07.645Z,34.47
2019-04-07T06:19:41.127Z,34.65
2019-04-07T06:22:08.656Z,31.67
2019-04-07T06:24:37.350Z,29.97
2019-04-07T06:27:06.210Z,29.83
2019-04-07T06:29:35.530Z,26.90
2019-04-07T06:32:09.257Z,27.30
2019-04-07T06:34:39.856Z,24.67
2019-04-07T06:37:07.721Z,29.37
2019-04-07T06:39:38.992Z,27.32
2019-04-07T06:42:08.491Z,26.70
2019-04-07T06:44:38.503Z,23.47
2019-04-07T06:47:15.945Z,20.92
2019-04-07T06:49:53.121Z,19.97
2019-04-07T06:52:38.697Z,21.93
2019-04-07T06:55:22.645Z,21.67
2019-04-07T06:58:07.544Z,23.53
2019-04-07T07:00:43.337Z,25.33
2019-04-07T07:03:19.886Z,21.13
2019-04-07T07:05:56.162Z,19.43
2019-04-07T07:08:43.773Z,19.30
2019-04-07T07:11:28.895Z,21.77
2019-04-07T07:13:59.986Z,23.33
2019-04-07T07:16:46.881Z,19.80
2019-04-07T07:19:33.127Z,21.67
2019-04-07T07:22:16.589Z,19.77
2019-04-07T07:24:50.245Z,17.73
2019-04-07T07:27:18.992Z,20.93
2019-04-07T07:29:48.938Z,21.20
2019-04-07T07:32:18.055Z,16.90
2019-04-07T07:34:46.800Z,18.73
2019-04-07T07:37:15.838Z,21.37
2019-04-07T07:39:45.094Z,19.17
2019-04-07T07:42:15.027Z,16.82
2019-04-07T07:44:43.905Z,20.40
2019-04-07T07:47:13.383Z,19.90
2019-04-07T07:49:42.489Z,19.02
2019-04-07T07:52:11.649Z,17.25
2019-04-07T07:54:41.027Z,17.92
2019-04-07T07:57:13.228Z,17.45
2019-04-07T07:59:43.280Z,17.12
2019-04-07T08:02:14.624Z,19.00
2019-04-07T08:04:42.452Z,18.12
2019-04-07T08:07:13.532Z,17.15
2019-04-07T08:09:42.163Z,15.48
2019-04-07T08:12:11.581Z,18.30
2019-04-07T08:14:42.661Z,17.00
2019-04-07T08:17:12.197Z,16.30
2019-04-07T08:19:42.634Z,16.67
2019-04-07T08:22:11.642Z,14.43
2019-04-07T08:24:40.579Z,15.32
2019-04-07T08:27:09.271Z,14.13
2019-04-07T08:29:39.569Z,13.40
2019-04-07T08:32:08.617Z,13.68
2019-04-07T08:34:37.275Z,13.65
2019-04-07T08:37:08.367Z,13.35
2019-04-07T08:39:37.491Z,12.53
2019-04-07T08:42:09.739Z,14.90
2019-04-07T08:44:36.787Z,15.70
2019-04-07T08:47:05.587Z,13.53
2019-04-07T08:49:35.367Z,16.00
2019-04-07T08:52:09.965Z,12.85
2019-04-07T08:54:37.173Z,11.97
2019-04-07T08:57:05.985Z,12.93
2019-04-07T08:59:35.389Z,14.38
2019-04-07T09:02:08.537Z,14.47
2019-04-07T09:04:44.238Z,12.50
2019-04-07T09:07:12.213Z,12.82
2019-04-07T09:09:46.628Z,11.50
2019-04-07T09:12:11.483Z,12.70
2019-04-07T09:14:43.978Z,12.82
2019-04-07T09:17:38.465Z,13.55
2019-04-07T09:20:06.143Z,16.32
2019-04-07T09:22:40.721Z,15.75
2019-04-07T09:25:14.710Z,15.38
2019-04-07T09:27:52.325Z,16.67
2019-04-07T09:30:34.590Z,16.42
2019-04-07T09:33:08.189Z,18.15
2019-04-07T09:35:58.894Z,16.70
2019-04-07T09:38:29.962Z,14.95
2019-04-07T09:41:00.553Z,16.95
2019-04-07T09:43:40.349Z,18.20
2019-04-07T09:46:14.664Z,17.77
2019-04-07T09:48:59.914Z,16.97
2019-04-07T09:51:30.977Z,19.37
2019-04-07T09:54:05.208Z,21.40
2019-04-07T09:56:52.987Z,19.85
2019-04-07T09:59:42.919Z,22.07
2019-04-07T10:02:34.133Z,21.30
2019-04-07T10:05:06.770Z,20.50
2019-04-07T10:07:40.313Z,21.30
2019-04-07T10:10:16.086Z,21.10
2019-04-07T10:13:01.956Z,20.08
2019-04-07T10:15:36.169Z,20.90
2019-04-07T10:18:08.681Z,24.12
2019-04-07T10:20:47.978Z,21.68
2019-04-07T10:23:27.622Z,19.07
2019-04-07T10:25:58.730Z,22.07
2019-04-07T10:28:32.339Z,22.65
2019-04-07T10:31:05.461Z,20.68
2019-04-07T10:33:44.965Z,18.82
2019-04-07T10:36:21.630Z,21.27
2019-04-07T10:38:54.130Z,21.40
2019-04-07T10:41:26.271Z,19.60
2019-04-07T10:44:12.978Z,21.62
2019-04-07T10:47:00.390Z,20.48
2019-04-07T10:49:57.981Z,22.93
2019-04-07T10:52:41.335Z,20.90
2019-04-07T10:55:17.422Z,23.22
2019-04-07T10:57:48.140Z,24.60
2019-04-07T11:00:35.188Z,24.90
2019-04-07T11:03:11.003Z,25.05
2019-04-07T11:05:42.741Z,25.90
2019-04-07T11:08:16.551Z,27.80
2019-04-07T11:11:06.267Z,28.52
2019-04-07T11:13:53.423Z,32.08
2019-04-07T11:16:39.989Z,30.43
2019-04-07T11:19:19.272Z,35.17
2019-04-07T11:21:53.902Z,31.15
2019-04-07T11:24:39.138Z,33.18
2019-04-07T11:27:23.433Z,31.65
2019-04-07T11:29:53.929Z,30.32
2019-04-07T11:32:28.244Z,31.77
2019-04-07T11:35:17.869Z,33.40
2019-04-07T11:37:54.303Z,29.77
2019-04-07T11:40:41.979Z,30.48
2019-04-07T11:43:03.361Z,28.75
2019-04-07T11:45:57.455Z,31.12
2019-04-07T11:48:21.005Z,29.18
2019-04-07T11:50:52.150Z,30.57
2019-04-07T11:53:23.201Z,31.87
2019-04-07T11:56:06.929Z,35.60
2019-04-07T11:58:36.571Z,35.90
2019-04-07T12:01:12.790Z,24.23
2019-04-07T12:03:53.454Z,28.05
2019-04-07T12:06:28.193Z,27.35
2019-04-07T12:09:04.871Z,30.45
2019-04-07T12:11:52.556Z,30.70
2019-04-07T12:14:25.688Z,29.30
2019-04-07T12:17:13.483Z,31.40
2019-04-07T12:19:47.334Z,29.72
2019-04-07T12:22:20.277Z,31.25
2019-04-07T12:24:57.477Z,27.00
2019-04-07T12:27:25.952Z,30.25
2019-04-07T12:29:56.895Z,26.70
2019-04-07T12:32:34.219Z,29.92
2019-04-07T12:35:10.808Z,23.45
2019-04-07T12:37:50.707Z,27.05
2019-04-07T12:40:36.590Z,29.15
2019-04-07T12:43:07.470Z,26.52
2019-04-07T12:45:40.556Z,26.93
2019-04-07T12:48:15.629Z,23.52
2019-04-07T12:50:48.987Z,24.00
2019-04-07T12:53:32.100Z,22.90
2019-04-07T12:56:13.414Z,25.80
2019-04-07T12:58:51.654Z,26.30
2019-04-07T13:01:25.001Z,30.25
2019-04-07T13:03:58.975Z,23.57
2019-04-07T13:06:50.742Z,24.85
2019-04-07T13:09:36.595Z,21.27
2019-04-07T13:12:20.325Z,22.52
2019-04-07T13:14:53.720Z,23.30
2019-04-07T13:17:24.949Z,21.87
2019-04-07T13:19:58.666Z,22.10
2019-04-07T13:22:43.610Z,23.12
2019-04-07T13:25:32.677Z,24.02
2019-04-07T13:28:04.282Z,20.92
2019-04-07T13:30:53.029Z,23.70
2019-04-07T13:33:31.734Z,23.30
2019-04-07T13:36:23.561Z,25.27
2019-04-07T13:39:12.099Z,23.83
2019-04-07T13:42:03.328Z,20.57
2019-04-07T13:44:53.735Z,26.15
2019-04-07T13:47:38.682Z,26.23
2019-04-07T13:50:25.111Z,22.73
2019-04-07T13:53:12.182Z,23.55
2019-04-07T13:56:03.467Z,24.70
2019-04-07T13:58:50.859Z,22.93
2019-04-07T14:01:23.251Z,23.52
2019-04-07T14:04:12.043Z,27.02
2019-04-07T14:06:46.736Z,26.30
2019-04-07T14:09:20.013Z,23.42
2019-04-07T14:12:04.891Z,25.88
2019-04-07T14:14:34.820Z,27.58
2019-04-07T14:17:11.936Z,21.97
2019-04-07T14:19:51.078Z,22.77
2019-04-07T14:22:37.315Z,24.90
2019-04-07T14:25:12.884Z,26.37
2019-04-07T14:28:00.163Z,25.08
2019-04-07T14:30:46.292Z,24.77
2019-04-07T14:33:17.826Z,24.23
2019-04-07T14:35:54.299Z,24.55
2019-04-07T14:38:34.518Z,27.15
2019-04-07T14:41:17.227Z,28.12
2019-04-07T14:43:53.013Z,22.52
2019-04-07T14:46:23.815Z,24.00
2019-04-07T14:49:13.501Z,27.05
2019-04-07T14:51:43.247Z,24.77
2019-04-07T14:54:16.427Z,26.48
2019-04-07T14:56:58.815Z,28.83
2019-04-07T14:59:41.668Z,28.40
2019-04-07T15:02:11.641Z,26.33
2019-04-07T15:04:43.615Z,26.65
2019-04-07T15:07:17.238Z,25.27
2019-04-07T15:09:48.380Z,28.92
2019-04-07T15:12:23.715Z,25.43
2019-04-07T15:14:49.242Z,25.92
2019-04-07T15:17:18.035Z,28.57
2019-04-07T15:19:54.334Z,26.48
2019-04-07T15:22:28.896Z,22.52
2019-04-07T15:24:53.798Z,24.00
2019-04-07T15:27:24.896Z,24.98
2019-04-07T15:29:53.195Z,25.40
2019-04-07T15:32:26.622Z,24.30
2019-04-07T15:34:52.586Z,25.72
2019-04-07T15:37:23.572Z,26.15
2019-04-07T15:39:51.742Z,25.30
2019-04-07T15:42:33.122Z,25.48
2019-04-07T15:44:52.999Z,26.45
2019-04-07T15:47:22.258Z,24.95
2019-04-07T15:49:51.360Z,26.23
2019-04-07T15:52:23.144Z,28.60
2019-04-07T15:54:53.703Z,30.57
2019-04-07T15:57:22.940Z,25.48
2019-04-07T15:59:54.047Z,28.12
2019-04-07T16:02:30.005Z,27.27
2019-04-07T16:05:02.618Z,28.73
2019-04-07T16:07:35.215Z,21.82
2019-04-07T16:10:10.431Z,21.40
2019-04-07T16:12:47.350Z,22.82
2019-04-07T16:15:15.796Z,30.62
2019-04-07T16:17:43.839Z,25.60
2019-04-07T16:20:22.877Z,24.00
2019-04-07T16:22:50.476Z,23.73
2019-04-07T16:25:19.629Z,25.30
2019-04-07T16:27:51.023Z,24.02
2019-04-07T16:30:21.567Z,25.02
2019-04-07T16:32:59.703Z,23.30
2019-04-07T16:35:26.504Z,26.30
2019-04-07T16:37:58.325Z,23.07
2019-04-07T16:40:26.952Z,25.25
2019-04-07T16:43:09.916Z,23.62
2019-04-07T16:45:31.634Z,23.70
2019-04-07T16:48:00.326Z,22.48
2019-04-07T16:50:29.502Z,22.90
2019-04-07T16:53:00.415Z,26.82
2019-04-07T16:55:46.537Z,23.32
2019-04-07T16:58:15.945Z,24.20
2019-04-07T17:00:45.406Z,22.45
2019-04-07T17:03:15.249Z,24.20
2019-04-07T17:05:48.118Z,21.30
2019-04-07T17:08:19.577Z,26.20
2019-04-07T17:10:48.581Z,21.30
2019-04-07T17:13:24.813Z,22.82
2019-04-07T17:15:50.736Z,21.37
2019-04-07T17:18:41.257Z,21.80
2019-04-07T17:21:20.307Z,22.62
2019-04-07T17:23:53.304Z,25.97
2019-04-07T17:26:21.680Z,26.70
2019-04-07T17:28:49.976Z,26.45
2019-04-07T17:31:21.108Z,29.23
2019-04-07T17:33:49.411Z,26.62
2019-04-07T17:36:24.003Z,27.40
2019-04-07T17:39:09.669Z,24.02
2019-04-07T17:41:49.090Z,26.33
2019-04-07T17:44:38.997Z,23.38
2019-04-07T17:47:09.841Z,27.85
2019-04-07T17:49:56.628Z,23.67
2019-04-07T17:52:31.613Z,24.45
2019-04-07T17:55:11.162Z,24.90
2019-04-07T17:57:45.032Z,27.50
2019-04-07T18:00:21.773Z,24.80
2019-04-07T18:02:54.932Z,25.27
2019-04-07T18:05:40.730Z,25.27
2019-04-07T18:08:15.731Z,24.95
2019-04-07T18:10:50.772Z,23.05
2019-04-07T18:13:46.015Z,24.52
2019-04-07T18:16:22.847Z,26.52
2019-04-07T18:19:05.257Z,28.13
2019-04-07T18:21:53.944Z,23.15
2019-04-07T18:24:46.679Z,27.87
2019-04-07T18:27:25.937Z,30.32
2019-04-07T18:29:59.640Z,24.95
2019-04-07T18:32:37.498Z,27.67
2019-04-07T18:35:18.074Z,26.07
2019-04-07T18:38:00.774Z,27.02
2019-04-07T18:40:42.899Z,32.55
2019-04-07T18:43:32.178Z,30.20
2019-04-07T18:46:21.482Z,31.52
2019-04-07T18:49:06.088Z,33.30
2019-04-07T18:51:54.594Z,38.17
2019-04-07T18:54:42.381Z,32.75
2019-04-07T18:57:29.441Z,35.23
2019-04-07T19:00:04.302Z,31.87
2019-04-07T19:02:44.299Z,33.50
2019-04-07T19:05:33.404Z,34.03
2019-04-07T19:08:05.064Z,31.50
2019-04-07T19:10:45.463Z,30.27
2019-04-07T19:13:35.766Z,31.13
2019-04-07T19:16:10.735Z,32.27
2019-04-07T19:18:54.774Z,27.70
2019-04-07T19:21:37.256Z,27.93
2019-04-07T19:24:18.429Z,31.13
2019-04-07T19:27:12.649Z,31.67
2019-04-07T19:29:46.287Z,26.90
2019-04-07T19:32:23.566Z,28.03
2019-04-07T19:35:02.629Z,26.27
2019-04-07T19:37:33.242Z,25.00
2019-04-07T19:40:09.474Z,27.93
2019-04-07T19:43:02.624Z,27.60
2019-04-07T19:45:33.120Z,31.40
2019-04-07T19:50:55.028Z,31.27
2019-04-07T19:53:43.257Z,29.20
2019-04-07T19:56:12.350Z,26.10
2019-04-07T19:58:55.593Z,34.90
2019-04-07T20:01:42.702Z,25.60
2019-04-07T20:04:31.108Z,35.13
2019-04-07T20:07:10.463Z,27.33
2019-04-07T20:09:58.888Z,27.03
2019-04-07T20:12:45.435Z,27.10
2019-04-07T20:15:38.077Z,25.80
2019-04-07T20:18:29.261Z,27.27
2019-04-07T20:21:08.306Z,27.53
2019-04-07T20:23:41.545Z,25.83
2019-04-07T20:26:15.832Z,29.17
2019-04-07T20:28:45.145Z,28.77
2019-04-07T20:31:31.746Z,25.13
2019-04-07T20:34:09.729Z,26.83
2019-04-07T20:36:48.041Z,25.67
2019-04-07T20:39:24.869Z,27.10
2019-04-07T20:41:58.838Z,29.57
2019-04-07T20:44:43.052Z,28.90
2019-04-07T20:47:17.602Z,28.00
2019-04-07T20:50:00.120Z,29.77
2019-04-07T20:52:44.949Z,26.67
2019-04-07T20:55:15.579Z,27.73
2019-04-07T20:57:54.947Z,24.13
2019-04-07T21:00:23.762Z,28.67
2019-04-07T21:03:10.771Z,24.77
2019-04-07T21:05:44.161Z,30.63
2019-04-07T21:08:18.572Z,27.47
2019-04-07T21:10:52.658Z,26.47
2019-04-07T21:13:41.785Z,24.60
2019-04-07T21:16:23.671Z,24.10
2019-04-07T21:18:50.168Z,27.67
2019-04-07T21:21:23.469Z,27.47
2019-04-07T21:23:57.349Z,32.67
2019-04-07T21:26:31.327Z,26.73
2019-04-07T21:29:28.095Z,28.27
2019-04-07T21:32:01.531Z,26.13
2019-04-07T21:34:47.763Z,29.70
2019-04-07T21:37:33.755Z,25.10
2019-04-07T21:40:08.425Z,26.40
2019-04-07T21:42:38.610Z,26.13
2019-04-07T21:45:15.335Z,26.70
2019-04-07T21:47:48.570Z,34.27
2019-04-07T21:50:33.866Z,26.87
2019-04-07T21:53:14.260Z,25.63
2019-04-07T21:55:49.718Z,28.00
2019-04-07T21:58:35.668Z,26.87
2019-04-07T22:01:23.021Z,27.33
2019-04-07T22:03:54.500Z,30.03
2019-04-07T22:06:29.786Z,28.73
2019-04-07T22:09:02.820Z,29.63
2019-04-07T22:11:31.459Z,29.37
2019-04-07T22:14:04.155Z,30.40
2019-04-07T22:16:35.422Z,28.13
2019-04-07T22:19:04.337Z,28.70
2019-04-07T22:21:34.368Z,27.40
2019-04-07T22:24:03.103Z,28.17
2019-04-07T22:26:33.481Z,27.80
2019-04-07T22:29:04.563Z,30.60
2019-04-07T22:31:49.245Z,28.30
2019-04-07T22:34:18.620Z,28.93
2019-04-07T22:36:48.079Z,30.20
2019-04-07T22:39:17.044Z,30.70
2019-04-07T22:41:46.245Z,32.63
2019-04-07T22:44:19.984Z,34.47
2019-04-07T22:46:49.469Z,33.57
2019-04-07T22:49:17.707Z,30.83
2019-04-07T22:51:47.546Z,31.60
2019-04-07T22:54:17.052Z,30.13
2019-04-07T22:56:46.641Z,33.93
2019-04-07T22:59:15.470Z,26.47
2019-04-07T23:01:44.442Z,31.07
2019-04-07T23:04:13.975Z,32.33
2019-04-07T23:06:45.798Z,32.33
2019-04-07T23:09:17.655Z,31.63
2019-04-07T23:11:46.320Z,27.63
2019-04-07T23:14:18.691Z,29.73
2019-04-07T23:16:47.458Z,38.93
2019-04-07T23:19:19.291Z,29.07
2019-04-07T23:21:51.252Z,33.90
2019-04-07T23:24:21.536Z,26.17
2019-04-07T23:26:51.798Z,27.37
2019-04-07T23:29:20.438Z,28.43
2019-04-07T23:31:49.407Z,30.47
2019-04-07T23:34:19.044Z,28.33
2019-04-07T23:36:47.976Z,35.00
2019-04-07T23:39:18.103Z,29.93
2019-04-07T23:41:46.918Z,28.40
2019-04-07T23:44:16.061Z,31.07
2019-04-07T23:46:44.846Z,33.63
2019-04-07T23:49:13.883Z,29.83
2019-04-07T23:51:43.412Z,28.27
2019-04-07T23:54:14.349Z,38.57
2019-04-07T23:56:45.881Z,31.03
2019-04-07T23:59:15.143Z,28.47
